KRNT - Renton
Updated: Tue, 24-Apr-2018 8:53am PDT

 Wind from NW
Wind: NW 10 mph , 17 km/h
Temperature: 57°F , 14°C
Dew Point: 37°F , 3°C
Humidity: 48%
Barometer: 30.19 inHg , 1022.4 hPa
Visibility: 10 miles , 16 km
2018/04/24 15:53 KRNT 241553Z 32009KT 10SM CLR 14/03 A3019 RMK AO2 SLP227 T01390033
KBFI - Seattle-Boeing
Updated: Tue, 24-Apr-2018 8:53am PDT

 Wind from varies
Wind: varies 5 mph , 7 km/h
Temperature: 57°F , 14°C
Dew Point: 41°F , 5°C
Humidity: 55%
Barometer: 30.20 inHg , 1022.7 hPa
Visibility: 10 miles , 16 km
2018/04/24 15:53 KBFI 241553Z VRB04KT 10SM CLR 14/05 A3020 RMK AO2 SLP225 T01440050
 
KSEA - Seattle
Updated: Tue, 24-Apr-2018 8:53am PDT

 Wind from NNW
Wind: NNW 9 mph , 15 km/h
Temperature: 61°F , 16°C
Dew Point: 37°F , 3°C
Humidity: 42%
Barometer: 30.19 inHg , 1022.4 hPa
Visibility: 10 miles , 16 km
Cloud details: 25000 ft
2018/04/24 15:53 KSEA 241553Z 34008KT 10SM BKN250 16/03 A3019 RMK AO2 SLP229 T01610033
KSMP - Stampede Pass
Updated: Tue, 24-Apr-2018 8:56am PDT

 Wind from varies
Wind: varies 6 mph , 9 km/h
Temperature: 46°F , 8°C
Wind Chill: 43°F , 6°C
Dew Point: 28°F , -2°C
Humidity: 50%
Barometer: 30.27 inHg , 1025.1 hPa
Visibility: 10 miles , 16 km
2018/04/24 15:56 KSMP 241556Z AUTO VRB05KT 10SM CLR 08/M02 A3027 RMK AO2 SLP258 T00781022